sensor_id;sensor_type;location;lat;lon;timestamp;P1;durP1;ratioP1;P2;durP2;ratioP2
55641;SDS011;41509;53.108;6.100;2023-04-24T00:00:10;5.53;;;2.15;;
55641;SDS011;41509;53.108;6.100;2023-04-24T00:02:42;4.68;;;1.90;;
55641;SDS011;41509;53.108;6.100;2023-04-24T00:05:12;4.93;;;1.60;;
55641;SDS011;41509;53.108;6.100;2023-04-24T00:07:41;3.05;;;1.90;;
55641;SDS011;41509;53.108;6.100;2023-04-24T00:10:07;2.63;;;1.60;;
55641;SDS011;41509;53.108;6.100;2023-04-24T00:12:33;2.72;;;1.38;;
55641;SDS011;41509;53.108;6.100;2023-04-24T00:14:59;1.75;;;1.27;;
55641;SDS011;41509;53.108;6.100;2023-04-24T00:17:34;2.65;;;1.60;;
55641;SDS011;41509;53.108;6.100;2023-04-24T00:19:59;2.90;;;1.70;;
55641;SDS011;41509;53.108;6.100;2023-04-24T00:22:30;4.78;;;1.92;;
55641;SDS011;41509;53.108;6.100;2023-04-24T00:24:58;2.33;;;1.40;;
55641;SDS011;41509;53.108;6.100;2023-04-24T00:27:24;2.70;;;1.50;;
55641;SDS011;41509;53.108;6.100;2023-04-24T00:29:50;3.43;;;2.00;;
55641;SDS011;41509;53.108;6.100;2023-04-24T00:32:24;2.63;;;1.67;;
55641;SDS011;41509;53.108;6.100;2023-04-24T00:34:52;3.85;;;2.03;;
55641;SDS011;41509;53.108;6.100;2023-04-24T00:37:18;2.70;;;1.90;;
55641;SDS011;41509;53.108;6.100;2023-04-24T00:39:43;2.70;;;1.60;;
55641;SDS011;41509;53.108;6.100;2023-04-24T00:42:09;2.40;;;1.80;;
55641;SDS011;41509;53.108;6.100;2023-04-24T00:44:35;3.27;;;2.13;;
55641;SDS011;41509;53.108;6.100;2023-04-24T00:47:00;4.17;;;2.07;;
55641;SDS011;41509;53.108;6.100;2023-04-24T00:49:26;2.42;;;1.77;;
55641;SDS011;41509;53.108;6.100;2023-04-24T00:51:52;2.92;;;1.95;;
55641;SDS011;41509;53.108;6.100;2023-04-24T00:54:19;3.75;;;2.10;;
55641;SDS011;41509;53.108;6.100;2023-04-24T00:56:45;3.63;;;2.20;;
55641;SDS011;41509;53.108;6.100;2023-04-24T00:59:14;4.60;;;2.15;;
55641;SDS011;41509;53.108;6.100;2023-04-24T01:01:42;2.60;;;1.80;;
55641;SDS011;41509;53.108;6.100;2023-04-24T01:06:36;3.97;;;1.67;;
55641;SDS011;41509;53.108;6.100;2023-04-24T01:09:07;2.50;;;1.45;;
55641;SDS011;41509;53.108;6.100;2023-04-24T01:11:34;4.90;;;2.28;;
55641;SDS011;41509;53.108;6.100;2023-04-24T01:14:02;4.13;;;1.98;;
55641;SDS011;41509;53.108;6.100;2023-04-24T01:16:28;3.13;;;1.77;;
55641;SDS011;41509;53.108;6.100;2023-04-24T01:18:54;3.42;;;2.05;;
55641;SDS011;41509;53.108;6.100;2023-04-24T01:21:21;3.03;;;1.90;;
55641;SDS011;41509;53.108;6.100;2023-04-24T01:23:52;3.20;;;1.60;;
55641;SDS011;41509;53.108;6.100;2023-04-24T01:26:19;5.00;;;2.22;;
55641;SDS011;41509;53.108;6.100;2023-04-24T01:28:45;2.72;;;1.75;;
55641;SDS011;41509;53.108;6.100;2023-04-24T01:31:11;2.78;;;1.80;;
55641;SDS011;41509;53.108;6.100;2023-04-24T01:33:37;2.60;;;1.50;;
55641;SDS011;41509;53.108;6.100;2023-04-24T01:36:02;5.13;;;1.60;;
55641;SDS011;41509;53.108;6.100;2023-04-24T01:38:28;3.13;;;1.58;;
55641;SDS011;41509;53.108;6.100;2023-04-24T01:40:54;2.90;;;1.30;;
55641;SDS011;41509;53.108;6.100;2023-04-24T01:43:19;2.00;;;1.43;;
55641;SDS011;41509;53.108;6.100;2023-04-24T01:45:45;2.72;;;1.65;;
55641;SDS011;41509;53.108;6.100;2023-04-24T01:48:11;2.53;;;1.73;;
55641;SDS011;41509;53.108;6.100;2023-04-24T01:50:37;4.45;;;1.58;;
55641;SDS011;41509;53.108;6.100;2023-04-24T01:53:03;2.10;;;1.13;;
55641;SDS011;41509;53.108;6.100;2023-04-24T01:55:29;2.20;;;1.60;;
55641;SDS011;41509;53.108;6.100;2023-04-24T01:57:55;2.17;;;1.45;;
55641;SDS011;41509;53.108;6.100;2023-04-24T02:00:21;2.15;;;1.48;;
55641;SDS011;41509;53.108;6.100;2023-04-24T02:02:50;2.70;;;1.73;;
55641;SDS011;41509;53.108;6.100;2023-04-24T02:05:16;3.55;;;1.77;;
55641;SDS011;41509;53.108;6.100;2023-04-24T02:07:41;3.00;;;2.00;;
55641;SDS011;41509;53.108;6.100;2023-04-24T02:10:07;2.20;;;1.77;;
55641;SDS011;41509;53.108;6.100;2023-04-24T02:12:36;2.90;;;1.92;;
55641;SDS011;41509;53.108;6.100;2023-04-24T02:15:02;3.17;;;2.00;;
55641;SDS011;41509;53.108;6.100;2023-04-24T02:17:30;3.00;;;2.13;;
55641;SDS011;41509;53.108;6.100;2023-04-24T02:19:56;3.15;;;1.95;;
55641;SDS011;41509;53.108;6.100;2023-04-24T02:22:24;3.13;;;2.03;;
55641;SDS011;41509;53.108;6.100;2023-04-24T02:24:49;2.90;;;2.07;;
55641;SDS011;41509;53.108;6.100;2023-04-24T02:27:15;3.43;;;2.30;;
55641;SDS011;41509;53.108;6.100;2023-04-24T02:29:40;3.73;;;2.40;;
55641;SDS011;41509;53.108;6.100;2023-04-24T02:32:06;3.60;;;2.53;;
55641;SDS011;41509;53.108;6.100;2023-04-24T02:34:32;4.63;;;2.63;;
55641;SDS011;41509;53.108;6.100;2023-04-24T02:37:00;4.35;;;2.55;;
55641;SDS011;41509;53.108;6.100;2023-04-24T02:39:25;4.27;;;2.77;;
55641;SDS011;41509;53.108;6.100;2023-04-24T02:41:51;4.73;;;2.97;;
55641;SDS011;41509;53.108;6.100;2023-04-24T02:44:16;4.40;;;3.10;;
55641;SDS011;41509;53.108;6.100;2023-04-24T02:46:42;5.60;;;3.42;;
55641;SDS011;41509;53.108;6.100;2023-04-24T02:49:08;4.80;;;3.08;;
55641;SDS011;41509;53.108;6.100;2023-04-24T02:51:34;4.80;;;3.17;;
55641;SDS011;41509;53.108;6.100;2023-04-24T02:53:59;8.53;;;3.37;;
55641;SDS011;41509;53.108;6.100;2023-04-24T02:56:25;4.97;;;3.30;;
55641;SDS011;41509;53.108;6.100;2023-04-24T02:58:51;5.30;;;3.60;;
55641;SDS011;41509;53.108;6.100;2023-04-24T03:01:16;6.20;;;4.17;;
55641;SDS011;41509;53.108;6.100;2023-04-24T03:03:42;4.20;;;3.17;;
55641;SDS011;41509;53.108;6.100;2023-04-24T03:06:08;5.10;;;3.70;;
55641;SDS011;41509;53.108;6.100;2023-04-24T03:08:34;5.07;;;3.73;;
55641;SDS011;41509;53.108;6.100;2023-04-24T03:11:00;6.32;;;4.25;;
55641;SDS011;41509;53.108;6.100;2023-04-24T03:13:26;5.43;;;3.70;;
55641;SDS011;41509;53.108;6.100;2023-04-24T03:15:51;6.25;;;3.78;;
55641;SDS011;41509;53.108;6.100;2023-04-24T03:18:18;7.50;;;4.35;;
55641;SDS011;41509;53.108;6.100;2023-04-24T03:20:45;7.07;;;4.80;;
55641;SDS011;41509;53.108;6.100;2023-04-24T03:23:11;8.30;;;4.07;;
55641;SDS011;41509;53.108;6.100;2023-04-24T03:25:37;6.67;;;4.40;;
55641;SDS011;41509;53.108;6.100;2023-04-24T03:28:02;7.73;;;4.53;;
55641;SDS011;41509;53.108;6.100;2023-04-24T03:30:28;8.83;;;4.67;;
55641;SDS011;41509;53.108;6.100;2023-04-24T03:32:54;8.50;;;4.70;;
55641;SDS011;41509;53.108;6.100;2023-04-24T03:35:19;6.77;;;4.40;;
55641;SDS011;41509;53.108;6.100;2023-04-24T03:37:46;7.53;;;4.65;;
55641;SDS011;41509;53.108;6.100;2023-04-24T03:40:12;6.37;;;4.30;;
55641;SDS011;41509;53.108;6.100;2023-04-24T03:42:38;4.40;;;2.60;;
55641;SDS011;41509;53.108;6.100;2023-04-24T03:45:04;3.83;;;2.50;;
55641;SDS011;41509;53.108;6.100;2023-04-24T03:47:30;3.42;;;2.00;;
55641;SDS011;41509;53.108;6.100;2023-04-24T03:49:56;2.20;;;1.37;;
55641;SDS011;41509;53.108;6.100;2023-04-24T03:52:21;2.20;;;1.30;;
55641;SDS011;41509;53.108;6.100;2023-04-24T03:54:47;3.03;;;1.20;;
55641;SDS011;41509;53.108;6.100;2023-04-24T03:57:13;1.87;;;0.90;;
55641;SDS011;41509;53.108;6.100;2023-04-24T03:59:38;1.20;;;0.70;;
55641;SDS011;41509;53.108;6.100;2023-04-24T04:02:04;1.03;;;0.57;;
55641;SDS011;41509;53.108;6.100;2023-04-24T04:04:30;1.65;;;0.63;;
55641;SDS011;41509;53.108;6.100;2023-04-24T04:06:55;0.80;;;0.40;;
55641;SDS011;41509;53.108;6.100;2023-04-24T04:09:21;1.43;;;0.50;;
55641;SDS011;41509;53.108;6.100;2023-04-24T04:11:49;0.70;;;0.30;;
55641;SDS011;41509;53.108;6.100;2023-04-24T04:14:14;1.40;;;0.60;;
55641;SDS011;41509;53.108;6.100;2023-04-24T04:16:40;0.83;;;0.40;;
55641;SDS011;41509;53.108;6.100;2023-04-24T04:19:06;0.90;;;0.57;;
55641;SDS011;41509;53.108;6.100;2023-04-24T04:21:32;0.80;;;0.50;;
55641;SDS011;41509;53.108;6.100;2023-04-24T04:23:58;0.73;;;0.47;;
55641;SDS011;41509;53.108;6.100;2023-04-24T04:26:27;3.83;;;0.88;;
55641;SDS011;41509;53.108;6.100;2023-04-24T04:28:55;1.95;;;0.88;;
55641;SDS011;41509;53.108;6.100;2023-04-24T04:31:20;0.90;;;0.50;;
55641;SDS011;41509;53.108;6.100;2023-04-24T04:33:46;1.50;;;0.80;;
55641;SDS011;41509;53.108;6.100;2023-04-24T04:36:14;1.65;;;0.90;;
55641;SDS011;41509;53.108;6.100;2023-04-24T04:38:42;1.58;;;0.90;;
55641;SDS011;41509;53.108;6.100;2023-04-24T04:41:09;1.30;;;0.80;;
55641;SDS011;41509;53.108;6.100;2023-04-24T04:43:35;2.40;;;1.17;;
55641;SDS011;41509;53.108;6.100;2023-04-24T04:46:01;1.55;;;0.90;;
55641;SDS011;41509;53.108;6.100;2023-04-24T04:48:28;1.77;;;1.13;;
55641;SDS011;41509;53.108;6.100;2023-04-24T04:50:56;2.00;;;1.15;;
55641;SDS011;41509;53.108;6.100;2023-04-24T04:53:22;1.50;;;0.77;;
55641;SDS011;41509;53.108;6.100;2023-04-24T04:55:48;2.00;;;1.13;;
55641;SDS011;41509;53.108;6.100;2023-04-24T04:58:13;3.30;;;1.03;;
55641;SDS011;41509;53.108;6.100;2023-04-24T05:00:39;8.20;;;1.40;;
55641;SDS011;41509;53.108;6.100;2023-04-24T05:03:04;3.07;;;1.97;;
55641;SDS011;41509;53.108;6.100;2023-04-24T05:05:31;3.42;;;1.60;;
55641;SDS011;41509;53.108;6.100;2023-04-24T05:07:56;2.47;;;1.60;;
55641;SDS011;41509;53.108;6.100;2023-04-24T05:10:22;2.53;;;1.70;;
55641;SDS011;41509;53.108;6.100;2023-04-24T05:12:48;4.88;;;1.42;;
55641;SDS011;41509;53.108;6.100;2023-04-24T05:15:14;3.60;;;1.83;;
55641;SDS011;41509;53.108;6.100;2023-04-24T05:17:40;4.70;;;1.60;;
55641;SDS011;41509;53.108;6.100;2023-04-24T05:20:06;3.88;;;2.10;;
55641;SDS011;41509;53.108;6.100;2023-04-24T05:22:32;5.53;;;1.92;;
55641;SDS011;41509;53.108;6.100;2023-04-24T05:24:58;3.63;;;2.20;;
55641;SDS011;41509;53.108;6.100;2023-04-24T05:27:24;6.80;;;2.33;;
55641;SDS011;41509;53.108;6.100;2023-04-24T05:29:49;4.43;;;1.80;;
55641;SDS011;41509;53.108;6.100;2023-04-24T05:32:16;4.60;;;2.25;;
55641;SDS011;41509;53.108;6.100;2023-04-24T05:34:42;3.67;;;2.42;;
55641;SDS011;41509;53.108;6.100;2023-04-24T05:37:07;6.47;;;1.80;;
55641;SDS011;41509;53.108;6.100;2023-04-24T05:39:35;6.07;;;2.72;;
55641;SDS011;41509;53.108;6.100;2023-04-24T05:42:01;5.82;;;2.42;;
55641;SDS011;41509;53.108;6.100;2023-04-24T05:44:28;3.17;;;2.25;;
55641;SDS011;41509;53.108;6.100;2023-04-24T05:46:53;5.13;;;2.43;;
55641;SDS011;41509;53.108;6.100;2023-04-24T05:49:20;4.07;;;2.55;;
55641;SDS011;41509;53.108;6.100;2023-04-24T05:51:49;4.82;;;2.70;;
55641;SDS011;41509;53.108;6.100;2023-04-24T05:54:15;7.57;;;1.77;;
55641;SDS011;41509;53.108;6.100;2023-04-24T05:56:40;4.97;;;2.17;;
55641;SDS011;41509;53.108;6.100;2023-04-24T05:59:06;3.53;;;1.80;;
55641;SDS011;41509;53.108;6.100;2023-04-24T06:01:33;3.38;;;1.92;;
55641;SDS011;41509;53.108;6.100;2023-04-24T06:03:58;2.43;;;1.60;;
55641;SDS011;41509;53.108;6.100;2023-04-24T06:06:24;4.38;;;1.38;;
55641;SDS011;41509;53.108;6.100;2023-04-24T06:08:50;2.78;;;1.52;;
55641;SDS011;41509;53.108;6.100;2023-04-24T06:11:16;2.90;;;1.27;;
55641;SDS011;41509;53.108;6.100;2023-04-24T06:13:42;3.58;;;1.20;;
55641;SDS011;41509;53.108;6.100;2023-04-24T06:16:08;2.17;;;1.30;;
55641;SDS011;41509;53.108;6.100;2023-04-24T06:18:33;2.97;;;1.50;;
55641;SDS011;41509;53.108;6.100;2023-04-24T06:20:59;3.40;;;1.10;;
55641;SDS011;41509;53.108;6.100;2023-04-24T06:23:25;1.93;;;0.90;;
55641;SDS011;41509;53.108;6.100;2023-04-24T06:25:51;2.97;;;1.00;;
55641;SDS011;41509;53.108;6.100;2023-04-24T06:28:17;1.60;;;0.73;;
55641;SDS011;41509;53.108;6.100;2023-04-24T06:30:42;1.95;;;0.70;;
55641;SDS011;41509;53.108;6.100;2023-04-24T06:33:08;1.15;;;0.75;;
55641;SDS011;41509;53.108;6.100;2023-04-24T06:35:35;2.42;;;0.70;;
55641;SDS011;41509;53.108;6.100;2023-04-24T06:40:26;4.95;;;0.93;;
55641;SDS011;41509;53.108;6.100;2023-04-24T06:42:52;1.57;;;1.00;;
55641;SDS011;41509;53.108;6.100;2023-04-24T06:45:18;4.77;;;1.10;;
55641;SDS011;41509;53.108;6.100;2023-04-24T06:47:46;3.63;;;1.60;;
55641;SDS011;41509;53.108;6.100;2023-04-24T06:50:12;3.47;;;1.40;;
55641;SDS011;41509;53.108;6.100;2023-04-24T06:52:38;2.30;;;1.20;;
55641;SDS011;41509;53.108;6.100;2023-04-24T06:55:04;2.97;;;1.30;;
55641;SDS011;41509;53.108;6.100;2023-04-24T06:57:30;2.60;;;1.35;;
55641;SDS011;41509;53.108;6.100;2023-04-24T06:59:56;4.80;;;1.55;;
55641;SDS011;41509;53.108;6.100;2023-04-24T07:02:22;5.67;;;1.37;;
55641;SDS011;41509;53.108;6.100;2023-04-24T07:04:47;3.20;;;1.57;;
55641;SDS011;41509;53.108;6.100;2023-04-24T07:07:13;4.47;;;1.50;;
55641;SDS011;41509;53.108;6.100;2023-04-24T07:09:40;3.03;;;1.40;;
55641;SDS011;41509;53.108;6.100;2023-04-24T07:12:09;3.08;;;1.80;;
55641;SDS011;41509;53.108;6.100;2023-04-24T07:14:39;7.05;;;2.10;;
55641;SDS011;41509;53.108;6.100;2023-04-24T07:17:05;6.45;;;2.38;;
55641;SDS011;41509;53.108;6.100;2023-04-24T07:19:31;6.22;;;2.90;;
55641;SDS011;41509;53.108;6.100;2023-04-24T07:21:59;6.85;;;3.22;;
55641;SDS011;41509;53.108;6.100;2023-04-24T07:24:25;10.37;;;4.83;;
55641;SDS011;41509;53.108;6.100;2023-04-24T07:26:51;10.15;;;5.13;;
55641;SDS011;41509;53.108;6.100;2023-04-24T07:29:17;13.88;;;5.53;;
55641;SDS011;41509;53.108;6.100;2023-04-24T07:31:43;10.32;;;5.05;;
55641;SDS011;41509;53.108;6.100;2023-04-24T07:34:09;12.60;;;5.27;;
55641;SDS011;41509;53.108;6.100;2023-04-24T07:36:35;9.17;;;4.97;;
55641;SDS011;41509;53.108;6.100;2023-04-24T07:39:00;14.15;;;6.03;;
55641;SDS011;41509;53.108;6.100;2023-04-24T07:41:26;14.43;;;5.10;;
55641;SDS011;41509;53.108;6.100;2023-04-24T07:46:18;9.63;;;4.30;;
55641;SDS011;41509;53.108;6.100;2023-04-24T07:48:45;10.07;;;5.03;;
55641;SDS011;41509;53.108;6.100;2023-04-24T07:51:14;13.23;;;5.18;;
55641;SDS011;41509;53.108;6.100;2023-04-24T07:53:40;11.48;;;5.00;;
55641;SDS011;41509;53.108;6.100;2023-04-24T07:56:06;11.82;;;5.40;;
55641;SDS011;41509;53.108;6.100;2023-04-24T07:58:32;12.27;;;5.70;;
55641;SDS011;41509;53.108;6.100;2023-04-24T08:00:57;15.10;;;7.53;;
55641;SDS011;41509;53.108;6.100;2023-04-24T08:03:23;12.00;;;6.53;;
55641;SDS011;41509;53.108;6.100;2023-04-24T08:05:49;12.40;;;6.60;;
55641;SDS011;41509;53.108;6.100;2023-04-24T08:08:16;15.02;;;7.05;;
55641;SDS011;41509;53.108;6.100;2023-04-24T08:10:41;15.73;;;6.63;;
55641;SDS011;41509;53.108;6.100;2023-04-24T08:13:07;14.60;;;7.65;;
55641;SDS011;41509;53.108;6.100;2023-04-24T08:15:33;12.17;;;6.50;;
55641;SDS011;41509;53.108;6.100;2023-04-24T08:17:59;11.23;;;5.95;;
55641;SDS011;41509;53.108;6.100;2023-04-24T08:20:25;11.95;;;5.82;;
55641;SDS011;41509;53.108;6.100;2023-04-24T08:22:51;10.17;;;5.87;;
55641;SDS011;41509;53.108;6.100;2023-04-24T08:25:16;10.33;;;4.80;;
55641;SDS011;41509;53.108;6.100;2023-04-24T08:27:44;8.90;;;4.40;;
55641;SDS011;41509;53.108;6.100;2023-04-24T08:30:09;11.57;;;4.20;;
55641;SDS011;41509;53.108;6.100;2023-04-24T08:32:36;6.55;;;3.25;;
55641;SDS011;41509;53.108;6.100;2023-04-24T08:35:01;8.55;;;4.00;;
55641;SDS011;41509;53.108;6.100;2023-04-24T08:37:27;16.85;;;4.68;;
55641;SDS011;41509;53.108;6.100;2023-04-24T08:39:53;9.90;;;4.53;;
55641;SDS011;41509;53.108;6.100;2023-04-24T08:42:19;11.10;;;4.25;;
55641;SDS011;41509;53.108;6.100;2023-04-24T08:44:46;8.05;;;3.80;;
55641;SDS011;41509;53.108;6.100;2023-04-24T08:47:13;10.57;;;3.78;;
55641;SDS011;41509;53.108;6.100;2023-04-24T08:49:40;8.38;;;3.45;;
55641;SDS011;41509;53.108;6.100;2023-04-24T08:52:07;7.43;;;3.92;;
55641;SDS011;41509;53.108;6.100;2023-04-24T08:54:34;9.25;;;3.90;;
55641;SDS011;41509;53.108;6.100;2023-04-24T08:57:00;10.15;;;3.40;;
55641;SDS011;41509;53.108;6.100;2023-04-24T08:59:28;7.03;;;3.33;;
55641;SDS011;41509;53.108;6.100;2023-04-24T09:01:58;9.63;;;3.65;;
55641;SDS011;41509;53.108;6.100;2023-04-24T09:04:25;8.05;;;3.10;;
55641;SDS011;41509;53.108;6.100;2023-04-24T09:06:52;6.53;;;2.90;;
55641;SDS011;41509;53.108;6.100;2023-04-24T09:09:22;7.85;;;3.30;;
55641;SDS011;41509;53.108;6.100;2023-04-24T09:11:52;5.50;;;2.90;;
55641;SDS011;41509;53.108;6.100;2023-04-24T09:14:22;15.73;;;3.55;;
55641;SDS011;41509;53.108;6.100;2023-04-24T09:16:48;7.22;;;3.17;;
55641;SDS011;41509;53.108;6.100;2023-04-24T09:19:15;9.85;;;2.67;;
55641;SDS011;41509;53.108;6.100;2023-04-24T09:21:40;8.20;;;3.30;;
55641;SDS011;41509;53.108;6.100;2023-04-24T09:24:14;9.68;;;2.97;;
55641;SDS011;41509;53.108;6.100;2023-04-24T09:26:43;4.70;;;1.77;;
55641;SDS011;41509;53.108;6.100;2023-04-24T09:29:13;4.97;;;1.70;;
55641;SDS011;41509;53.108;6.100;2023-04-24T09:31:45;8.02;;;2.90;;
55641;SDS011;41509;53.108;6.100;2023-04-24T09:34:11;9.20;;;2.50;;
55641;SDS011;41509;53.108;6.100;2023-04-24T09:36:38;7.95;;;2.03;;
55641;SDS011;41509;53.108;6.100;2023-04-24T09:39:06;6.03;;;2.60;;
55641;SDS011;41509;53.108;6.100;2023-04-24T09:41:38;8.57;;;2.38;;
55641;SDS011;41509;53.108;6.100;2023-04-24T09:44:13;6.28;;;2.63;;
55641;SDS011;41509;53.108;6.100;2023-04-24T09:46:41;9.63;;;2.40;;
55641;SDS011;41509;53.108;6.100;2023-04-24T09:49:14;4.00;;;2.00;;
55641;SDS011;41509;53.108;6.100;2023-04-24T09:51:41;10.18;;;2.20;;
55641;SDS011;41509;53.108;6.100;2023-04-24T09:54:13;6.43;;;2.78;;
55641;SDS011;41509;53.108;6.100;2023-04-24T09:56:49;7.82;;;2.00;;
55641;SDS011;41509;53.108;6.100;2023-04-24T09:59:16;7.35;;;1.85;;
55641;SDS011;41509;53.108;6.100;2023-04-24T10:01:43;8.10;;;1.88;;
55641;SDS011;41509;53.108;6.100;2023-04-24T10:04:20;8.02;;;2.00;;
55641;SDS011;41509;53.108;6.100;2023-04-24T10:06:46;4.30;;;1.50;;
55641;SDS011;41509;53.108;6.100;2023-04-24T10:09:19;3.30;;;1.30;;
55641;SDS011;41509;53.108;6.100;2023-04-24T10:11:50;5.88;;;1.77;;
55641;SDS011;41509;53.108;6.100;2023-04-24T10:14:20;7.95;;;2.00;;
55641;SDS011;41509;53.108;6.100;2023-04-24T10:16:46;7.65;;;1.60;;
55641;SDS011;41509;53.108;6.100;2023-04-24T10:19:14;5.32;;;1.75;;
55641;SDS011;41509;53.108;6.100;2023-04-24T10:21:41;7.30;;;1.50;;
55641;SDS011;41509;53.108;6.100;2023-04-24T10:24:08;5.80;;;1.77;;
55641;SDS011;41509;53.108;6.100;2023-04-24T10:26:34;7.93;;;1.55;;
55641;SDS011;41509;53.108;6.100;2023-04-24T10:29:00;5.32;;;1.35;;
55641;SDS011;41509;53.108;6.100;2023-04-24T10:31:26;3.92;;;1.08;;
55641;SDS011;41509;53.108;6.100;2023-04-24T10:33:55;7.38;;;1.48;;
55641;SDS011;41509;53.108;6.100;2023-04-24T10:36:23;5.55;;;1.20;;
55641;SDS011;41509;53.108;6.100;2023-04-24T10:38:52;11.70;;;1.30;;
55641;SDS011;41509;53.108;6.100;2023-04-24T10:41:19;7.22;;;1.45;;
55641;SDS011;41509;53.108;6.100;2023-04-24T10:43:48;3.00;;;1.20;;
55641;SDS011;41509;53.108;6.100;2023-04-24T10:46:29;5.10;;;1.10;;
55641;SDS011;41509;53.108;6.100;2023-04-24T10:48:55;5.75;;;2.08;;
55641;SDS011;41509;53.108;6.100;2023-04-24T10:51:22;7.38;;;1.55;;
55641;SDS011;41509;53.108;6.100;2023-04-24T10:53:51;3.50;;;1.35;;
55641;SDS011;41509;53.108;6.100;2023-04-24T10:56:17;5.05;;;1.60;;
55641;SDS011;41509;53.108;6.100;2023-04-24T10:58:50;8.45;;;1.40;;
55641;SDS011;41509;53.108;6.100;2023-04-24T11:01:24;5.50;;;1.25;;
55641;SDS011;41509;53.108;6.100;2023-04-24T11:03:56;3.15;;;1.00;;
55641;SDS011;41509;53.108;6.100;2023-04-24T11:06:30;3.85;;;1.00;;
55641;SDS011;41509;53.108;6.100;2023-04-24T11:09:04;4.50;;;1.08;;
55641;SDS011;41509;53.108;6.100;2023-04-24T11:11:35;3.85;;;0.90;;
55641;SDS011;41509;53.108;6.100;2023-04-24T11:14:08;4.10;;;1.15;;
55641;SDS011;41509;53.108;6.100;2023-04-24T11:16:35;6.28;;;1.33;;
55641;SDS011;41509;53.108;6.100;2023-04-24T11:19:33;10.80;;;3.03;;
55641;SDS011;41509;53.108;6.100;2023-04-24T11:21:59;4.65;;;1.20;;
55641;SDS011;41509;53.108;6.100;2023-04-24T11:24:28;14.35;;;2.05;;
55641;SDS011;41509;53.108;6.100;2023-04-24T11:29:46;4.43;;;1.23;;
55641;SDS011;41509;53.108;6.100;2023-04-24T11:35:08;4.68;;;0.93;;
55641;SDS011;41509;53.108;6.100;2023-04-24T11:37:45;1.58;;;0.77;;
55641;SDS011;41509;53.108;6.100;2023-04-24T11:40:15;6.22;;;1.27;;
55641;SDS011;41509;53.108;6.100;2023-04-24T11:42:43;5.93;;;1.08;;
55641;SDS011;41509;53.108;6.100;2023-04-24T11:45:11;5.10;;;1.25;;
55641;SDS011;41509;53.108;6.100;2023-04-24T11:47:38;2.65;;;1.20;;
55641;SDS011;41509;53.108;6.100;2023-04-24T11:50:05;2.88;;;1.20;;
55641;SDS011;41509;53.108;6.100;2023-04-24T11:52:33;6.60;;;1.20;;
55641;SDS011;41509;53.108;6.100;2023-04-24T11:55:03;5.50;;;1.00;;
55641;SDS011;41509;53.108;6.100;2023-04-24T11:57:29;2.25;;;1.00;;
55641;SDS011;41509;53.108;6.100;2023-04-24T11:59:59;5.80;;;1.10;;
55641;SDS011;41509;53.108;6.100;2023-04-24T12:02:27;4.80;;;1.10;;
55641;SDS011;41509;53.108;6.100;2023-04-24T12:04:53;6.10;;;1.00;;
55641;SDS011;41509;53.108;6.100;2023-04-24T12:09:49;3.72;;;0.85;;
55641;SDS011;41509;53.108;6.100;2023-04-24T12:12:24;3.85;;;0.90;;
55641;SDS011;41509;53.108;6.100;2023-04-24T12:14:53;3.00;;;0.55;;
55641;SDS011;41509;53.108;6.100;2023-04-24T12:17:30;2.17;;;0.60;;
55641;SDS011;41509;53.108;6.100;2023-04-24T12:19:57;3.38;;;0.70;;
55641;SDS011;41509;53.108;6.100;2023-04-24T12:22:27;4.43;;;0.68;;
55641;SDS011;41509;53.108;6.100;2023-04-24T12:24:58;6.40;;;0.90;;
55641;SDS011;41509;53.108;6.100;2023-04-24T12:27:26;1.55;;;0.85;;
55641;SDS011;41509;53.108;6.100;2023-04-24T12:29:57;5.45;;;0.82;;
55641;SDS011;41509;53.108;6.100;2023-04-24T12:32:24;2.17;;;0.75;;
55641;SDS011;41509;53.108;6.100;2023-04-24T12:34:50;4.20;;;0.95;;
55641;SDS011;41509;53.108;6.100;2023-04-24T12:37:20;1.48;;;0.60;;
55641;SDS011;41509;53.108;6.100;2023-04-24T12:40:00;5.03;;;0.75;;
55641;SDS011;41509;53.108;6.100;2023-04-24T12:42:34;3.05;;;0.65;;
55641;SDS011;41509;53.108;6.100;2023-04-24T12:45:10;2.42;;;0.98;;
55641;SDS011;41509;53.108;6.100;2023-04-24T12:47:37;0.88;;;0.30;;
55641;SDS011;41509;53.108;6.100;2023-04-24T12:50:04;2.20;;;0.68;;
55641;SDS011;41509;53.108;6.100;2023-04-24T12:52:31;1.05;;;0.25;;
55641;SDS011;41509;53.108;6.100;2023-04-24T12:54:58;1.70;;;0.32;;
55641;SDS011;41509;53.108;6.100;2023-04-24T12:57:25;1.38;;;0.35;;
55641;SDS011;41509;53.108;6.100;2023-04-24T12:59:55;5.88;;;0.63;;
55641;SDS011;41509;53.108;6.100;2023-04-24T13:02:22;2.50;;;0.60;;
55641;SDS011;41509;53.108;6.100;2023-04-24T13:04:58;2.53;;;0.77;;
55641;SDS011;41509;53.108;6.100;2023-04-24T13:07:25;1.60;;;0.70;;
55641;SDS011;41509;53.108;6.100;2023-04-24T13:09:52;1.48;;;0.38;;
55641;SDS011;41509;53.108;6.100;2023-04-24T13:12:23;0.73;;;0.40;;
55641;SDS011;41509;53.108;6.100;2023-04-24T13:14:49;6.80;;;0.73;;
55641;SDS011;41509;53.108;6.100;2023-04-24T13:17:15;1.15;;;0.22;;
55641;SDS011;41509;53.108;6.100;2023-04-24T13:19:41;2.20;;;0.50;;
55641;SDS011;41509;53.108;6.100;2023-04-24T13:22:09;2.65;;;0.50;;
55641;SDS011;41509;53.108;6.100;2023-04-24T13:24:35;2.42;;;0.82;;
55641;SDS011;41509;53.108;6.100;2023-04-24T13:27:03;2.90;;;0.53;;
55641;SDS011;41509;53.108;6.100;2023-04-24T13:29:29;6.90;;;0.95;;
55641;SDS011;41509;53.108;6.100;2023-04-24T13:31:55;2.07;;;0.87;;
55641;SDS011;41509;53.108;6.100;2023-04-24T13:34:26;6.07;;;0.82;;
55641;SDS011;41509;53.108;6.100;2023-04-24T13:36:52;5.03;;;1.08;;
55641;SDS011;41509;53.108;6.100;2023-04-24T13:39:19;7.15;;;1.48;;
55641;SDS011;41509;53.108;6.100;2023-04-24T13:41:45;5.63;;;1.23;;
55641;SDS011;41509;53.108;6.100;2023-04-24T13:44:13;7.15;;;1.42;;
55641;SDS011;41509;53.108;6.100;2023-04-24T13:46:40;4.95;;;1.20;;
55641;SDS011;41509;53.108;6.100;2023-04-24T13:49:05;5.40;;;0.80;;
55641;SDS011;41509;53.108;6.100;2023-04-24T13:51:32;8.13;;;1.57;;
55641;SDS011;41509;53.108;6.100;2023-04-24T13:53:58;2.88;;;1.17;;
55641;SDS011;41509;53.108;6.100;2023-04-24T13:56:24;9.43;;;1.17;;
55641;SDS011;41509;53.108;6.100;2023-04-24T13:58:51;5.93;;;1.42;;
55641;SDS011;41509;53.108;6.100;2023-04-24T14:01:18;7.75;;;1.38;;
55641;SDS011;41509;53.108;6.100;2023-04-24T14:03:45;7.57;;;1.58;;
55641;SDS011;41509;53.108;6.100;2023-04-24T14:06:11;3.40;;;1.10;;
55641;SDS011;41509;53.108;6.100;2023-04-24T14:08:37;8.90;;;1.43;;
55641;SDS011;41509;53.108;6.100;2023-04-24T14:11:02;3.30;;;1.27;;
55641;SDS011;41509;53.108;6.100;2023-04-24T14:13:31;7.88;;;1.23;;
55641;SDS011;41509;53.108;6.100;2023-04-24T14:15:57;8.63;;;1.27;;
55641;SDS011;41509;53.108;6.100;2023-04-24T14:18:23;3.87;;;1.23;;
55641;SDS011;41509;53.108;6.100;2023-04-24T14:20:49;6.00;;;1.60;;
55641;SDS011;41509;53.108;6.100;2023-04-24T14:23:15;9.82;;;1.73;;
55641;SDS011;41509;53.108;6.100;2023-04-24T14:25:41;7.77;;;1.60;;
55641;SDS011;41509;53.108;6.100;2023-04-24T14:28:09;9.35;;;2.30;;
55641;SDS011;41509;53.108;6.100;2023-04-24T14:30:37;7.10;;;2.03;;
55641;SDS011;41509;53.108;6.100;2023-04-24T14:33:05;7.18;;;1.77;;
55641;SDS011;41509;53.108;6.100;2023-04-24T14:35:31;4.63;;;1.80;;
55641;SDS011;41509;53.108;6.100;2023-04-24T14:37:59;9.15;;;1.98;;
55641;SDS011;41509;53.108;6.100;2023-04-24T14:40:25;10.93;;;2.38;;
55641;SDS011;41509;53.108;6.100;2023-04-24T14:42:50;6.73;;;1.90;;
55641;SDS011;41509;53.108;6.100;2023-04-24T14:45:18;5.65;;;2.20;;
55641;SDS011;41509;53.108;6.100;2023-04-24T14:47:44;5.27;;;1.67;;
55641;SDS011;41509;53.108;6.100;2023-04-24T14:50:10;9.07;;;2.17;;
55641;SDS011;41509;53.108;6.100;2023-04-24T14:52:37;6.60;;;1.90;;
55641;SDS011;41509;53.108;6.100;2023-04-24T14:55:03;6.88;;;2.17;;
55641;SDS011;41509;53.108;6.100;2023-04-24T14:59:55;7.07;;;2.03;;
55641;SDS011;41509;53.108;6.100;2023-04-24T15:02:21;8.77;;;2.40;;